KDBN/DBN METAR and TAF weather

Enter ICAO airport designator
Station Type Date Time Source
KDBN METAR 2019/08/25 03:15 UTC NOAA

KDBN 250315Z AUTO 00000KT 10SM SCT018 OVC031 23/23 A3009 RMK AO2 LTG DSNT NW


Station Type Date Time Source
KDBN Decoded METAR 2019/08/25 03:15 UTC NOAA

Station name not available
Aug 24, 2019 - 11:15 PM EDT / 2019.08.25 0315 UTC
Wind: Calm:0
Visibility: 10 mile(s):0
Sky conditions: overcast
Weather: Lightning observed
Temperature: 73 F (23 C)
Dew Point: 73 F (23 C)
Relative Humidity: 100%
Pressure (altimeter): 30.09 in. Hg (1018 hPa)
ob: KDBN 250315Z AUTO 00000KT 10SM SCT018 OVC031 23/23 A3009 RMK AO2 LTG DSNT NW
cycle: 3

Station Type Date Time Source
KDBN TAF UTC NOAA

Error!

Example: see airport list